sensor_id;sensor_type;location;lat;lon;timestamp;pressure;altitude;pressure_sealevel;temperature;humidity
36062;BME280;22123;52.412;20.970;2023-03-03T00:02:23;100906.53;;;-5.19;100.00
36062;BME280;22123;52.412;20.970;2023-03-03T00:04:49;101055.69;;;-4.37;100.00
36062;BME280;22123;52.412;20.970;2023-03-03T00:07:14;101022.56;;;-4.63;100.00
36062;BME280;22123;52.412;20.970;2023-03-03T00:09:40;101063.56;;;-4.37;100.00
36062;BME280;22123;52.412;20.970;2023-03-03T00:12:26;101125.28;;;-4.03;100.00
36062;BME280;22123;52.412;20.970;2023-03-03T00:14:53;101123.56;;;-4.04;100.00
36062;BME280;22123;52.412;20.970;2023-03-03T00:17:27;101122.78;;;-4.06;100.00
36062;BME280;22123;52.412;20.970;2023-03-03T00:22:55;101131.13;;;-4.17;100.00
36062;BME280;22123;52.412;20.970;2023-03-03T00:25:35;101114.91;;;-4.06;100.00
36062;BME280;22123;52.412;20.970;2023-03-03T00:28:17;101045.53;;;-4.46;100.00
36062;BME280;22123;52.412;20.970;2023-03-03T00:30:44;101043.03;;;-4.49;100.00
36062;BME280;22123;52.412;20.970;2023-03-03T00:33:25;101001.78;;;-4.69;100.00
36062;BME280;22123;52.412;20.970;2023-03-03T00:35:51;101107.88;;;-4.06;100.00
36062;BME280;22123;52.412;20.970;2023-03-03T00:38:17;101013.81;;;-4.64;100.00
36062;BME280;22123;52.412;20.970;2023-03-03T00:40:43;100963.22;;;-4.91;100.00
36062;BME280;22123;52.412;20.970;2023-03-03T00:43:24;100929.91;;;-5.13;100.00
36062;BME280;22123;52.412;20.970;2023-03-03T00:45:54;101039.06;;;-4.60;100.00
36062;BME280;22123;52.412;20.970;2023-03-03T00:48:25;101097.91;;;-4.20;100.00
36062;BME280;22123;52.412;20.970;2023-03-03T00:50:54;100989.19;;;-4.83;100.00
36062;BME280;22123;52.412;20.970;2023-03-03T00:53:22;100719.28;;;-6.51;100.00
36062;BME280;22123;52.412;20.970;2023-03-03T00:55:49;101079.59;;;-4.21;100.00
36062;BME280;22123;52.412;20.970;2023-03-03T00:58:15;100700.75;;;-6.46;100.00
36062;BME280;22123;52.412;20.970;2023-03-03T01:00:41;100963.72;;;-4.81;100.00
36062;BME280;22123;52.412;20.970;2023-03-03T01:03:09;101008.91;;;-4.51;100.00
36062;BME280;22123;52.412;20.970;2023-03-03T01:05:37;101053.47;;;-4.26;100.00
36062;BME280;22123;52.412;20.970;2023-03-03T01:08:03;100683.91;;;-6.39;100.00
36062;BME280;22123;52.412;20.970;2023-03-03T01:10:31;100969.94;;;-4.62;100.00
36062;BME280;22123;52.412;20.970;2023-03-03T01:12:59;100964.81;;;-4.65;100.00
36062;BME280;22123;52.412;20.970;2023-03-03T01:15:24;100955.03;;;-4.61;100.00
36062;BME280;22123;52.412;20.970;2023-03-03T01:17:50;100932.13;;;-4.80;100.00
36062;BME280;22123;52.412;20.970;2023-03-03T01:20:17;100978.19;;;-4.49;100.00
36062;BME280;22123;52.412;20.970;2023-03-03T01:22:43;100974.81;;;-4.52;100.00
36062;BME280;22123;52.412;20.970;2023-03-03T01:25:09;100816.47;;;-5.42;100.00
36062;BME280;22123;52.412;20.970;2023-03-03T01:27:35;100944.50;;;-4.61;100.00
36062;BME280;22123;52.412;20.970;2023-03-03T01:30:05;100908.47;;;-4.80;100.00
36062;BME280;22123;52.412;20.970;2023-03-03T01:32:33;100969.38;;;-4.48;100.00
36062;BME280;22123;52.412;20.970;2023-03-03T01:34:59;100931.09;;;-4.76;100.00
36062;BME280;22123;52.412;20.970;2023-03-03T01:37:27;100934.63;;;-4.77;100.00
36062;BME280;22123;52.412;20.970;2023-03-03T01:39:53;100949.28;;;-4.71;100.00
36062;BME280;22123;52.412;20.970;2023-03-03T01:42:20;101027.63;;;-4.16;100.00
36062;BME280;22123;52.412;20.970;2023-03-03T01:44:46;100951.72;;;-4.66;100.00
36062;BME280;22123;52.412;20.970;2023-03-03T01:47:21;100933.34;;;-4.89;100.00
36062;BME280;22123;52.412;20.970;2023-03-03T01:49:57;100902.19;;;-5.20;100.00
36062;BME280;22123;52.412;20.970;2023-03-03T01:52:37;100842.56;;;-5.61;100.00
36062;BME280;22123;52.412;20.970;2023-03-03T01:55:09;101014.44;;;-4.57;100.00
36062;BME280;22123;52.412;20.970;2023-03-03T01:57:40;100829.34;;;-5.81;100.00
36062;BME280;22123;52.412;20.970;2023-03-03T02:00:09;101000.47;;;-4.81;100.00
36062;BME280;22123;52.412;20.970;2023-03-03T02:02:35;100950.31;;;-5.19;100.00
36062;BME280;22123;52.412;20.970;2023-03-03T02:05:02;101028.53;;;-4.82;100.00
36062;BME280;22123;52.412;20.970;2023-03-03T02:07:29;100788.16;;;-6.23;100.00
36062;BME280;22123;52.412;20.970;2023-03-03T02:12:52;101018.56;;;-4.96;100.00
36062;BME280;22123;52.412;20.970;2023-03-03T02:17:45;100953.06;;;-5.46;100.00
36062;BME280;22123;52.412;20.970;2023-03-03T02:20:19;101012.38;;;-5.17;100.00
36062;BME280;22123;52.412;20.970;2023-03-03T02:22:50;101004.28;;;-5.34;100.00
36062;BME280;22123;52.412;20.970;2023-03-03T02:25:28;100903.38;;;-5.97;100.00
36062;BME280;22123;52.412;20.970;2023-03-03T02:27:56;100955.06;;;-5.77;100.00
36062;BME280;22123;52.412;20.970;2023-03-03T02:30:22;101025.47;;;-5.41;100.00
36062;BME280;22123;52.412;20.970;2023-03-03T02:32:48;100889.72;;;-6.30;100.00
36062;BME280;22123;52.412;20.970;2023-03-03T02:35:41;100977.19;;;-5.84;100.00
36062;BME280;22123;52.412;20.970;2023-03-03T02:38:47;100856.66;;;-6.59;100.00
36062;BME280;22123;52.412;20.970;2023-03-03T02:46:26;100999.78;;;-5.80;100.00
36062;BME280;22123;52.412;20.970;2023-03-03T02:48:52;100936.03;;;-6.31;100.00
36062;BME280;22123;52.412;20.970;2023-03-03T02:51:18;100905.94;;;-6.44;100.00
36062;BME280;22123;52.412;20.970;2023-03-03T02:53:51;100899.78;;;-6.43;100.00
36062;BME280;22123;52.412;20.970;2023-03-03T02:56:17;100821.22;;;-6.95;100.00
36062;BME280;22123;52.412;20.970;2023-03-03T02:58:43;100820.31;;;-6.94;100.00
36062;BME280;22123;52.412;20.970;2023-03-03T03:01:10;100888.66;;;-6.50;100.00
36062;BME280;22123;52.412;20.970;2023-03-03T03:03:36;100904.97;;;-6.41;100.00
36062;BME280;22123;52.412;20.970;2023-03-03T03:06:02;100883.03;;;-6.64;100.00
36062;BME280;22123;52.412;20.970;2023-03-03T03:08:28;100899.25;;;-6.53;100.00
36062;BME280;22123;52.412;20.970;2023-03-03T03:10:56;100969.31;;;-6.07;100.00
36062;BME280;22123;52.412;20.970;2023-03-03T03:13:23;100921.44;;;-6.38;100.00
36062;BME280;22123;52.412;20.970;2023-03-03T03:15:49;100914.00;;;-6.50;100.00
36062;BME280;22123;52.412;20.970;2023-03-03T03:18:16;100982.88;;;-5.96;100.00
36062;BME280;22123;52.412;20.970;2023-03-03T03:20:42;100979.25;;;-5.92;100.00
36062;BME280;22123;52.412;20.970;2023-03-03T03:23:08;100843.91;;;-6.69;100.00
36062;BME280;22123;52.412;20.970;2023-03-03T03:25:34;100885.97;;;-6.48;100.00
36062;BME280;22123;52.412;20.970;2023-03-03T03:28:00;100925.34;;;-6.24;100.00
36062;BME280;22123;52.412;20.970;2023-03-03T03:30:26;100982.34;;;-5.81;100.00
36062;BME280;22123;52.412;20.970;2023-03-03T03:32:52;100988.53;;;-5.83;100.00
36062;BME280;22123;52.412;20.970;2023-03-03T03:35:18;100714.94;;;-7.51;100.00
36062;BME280;22123;52.412;20.970;2023-03-03T03:37:44;100915.06;;;-6.31;100.00
36062;BME280;22123;52.412;20.970;2023-03-03T03:40:10;100937.47;;;-6.22;100.00
36062;BME280;22123;52.412;20.970;2023-03-03T03:42:36;100881.38;;;-6.16;100.00
36062;BME280;22123;52.412;20.970;2023-03-03T03:45:02;100984.75;;;-5.51;100.00
36062;BME280;22123;52.412;20.970;2023-03-03T03:47:28;100891.19;;;-5.98;100.00
36062;BME280;22123;52.412;20.970;2023-03-03T03:49:54;100856.59;;;-6.07;100.00
36062;BME280;22123;52.412;20.970;2023-03-03T03:52:20;100855.03;;;-6.13;100.00
36062;BME280;22123;52.412;20.970;2023-03-03T03:54:46;100758.09;;;-6.62;100.00
36062;BME280;22123;52.412;20.970;2023-03-03T03:57:12;100754.88;;;-6.69;100.00
36062;BME280;22123;52.412;20.970;2023-03-03T03:59:38;100876.47;;;-6.02;100.00
36062;BME280;22123;52.412;20.970;2023-03-03T04:02:04;100837.88;;;-6.22;100.00
36062;BME280;22123;52.412;20.970;2023-03-03T04:04:30;100964.56;;;-5.49;100.00
36062;BME280;22123;52.412;20.970;2023-03-03T04:06:55;100863.88;;;-6.16;100.00
36062;BME280;22123;52.412;20.970;2023-03-03T04:09:21;100907.56;;;-5.93;100.00
36062;BME280;22123;52.412;20.970;2023-03-03T04:11:47;100880.28;;;-6.10;100.00
36062;BME280;22123;52.412;20.970;2023-03-03T04:14:13;100807.38;;;-6.48;100.00
36062;BME280;22123;52.412;20.970;2023-03-03T04:16:39;100829.56;;;-6.33;100.00
36062;BME280;22123;52.412;20.970;2023-03-03T04:19:05;100913.09;;;-5.77;100.00
36062;BME280;22123;52.412;20.970;2023-03-03T04:21:31;100823.94;;;-6.22;100.00
36062;BME280;22123;52.412;20.970;2023-03-03T04:23:56;100818.94;;;-6.05;100.00
36062;BME280;22123;52.412;20.970;2023-03-03T04:26:28;100804.16;;;-6.07;100.00
36062;BME280;22123;52.412;20.970;2023-03-03T04:28:54;100772.25;;;-6.19;100.00
36062;BME280;22123;52.412;20.970;2023-03-03T04:31:21;100855.72;;;-5.62;100.00
36062;BME280;22123;52.412;20.970;2023-03-03T04:33:47;100735.28;;;-6.35;100.00
36062;BME280;22123;52.412;20.970;2023-03-03T04:36:13;100765.13;;;-5.93;100.00
36062;BME280;22123;52.412;20.970;2023-03-03T04:38:39;100834.22;;;-5.48;100.00
36062;BME280;22123;52.412;20.970;2023-03-03T04:41:05;100772.22;;;-5.73;100.00
36062;BME280;22123;52.412;20.970;2023-03-03T04:43:31;100804.84;;;-5.36;100.00
36062;BME280;22123;52.412;20.970;2023-03-03T04:45:56;100808.94;;;-5.29;100.00
36062;BME280;22123;52.412;20.970;2023-03-03T04:48:22;100923.91;;;-4.50;100.00
36062;BME280;22123;52.412;20.970;2023-03-03T04:50:48;100871.56;;;-4.77;100.00
36062;BME280;22123;52.412;20.970;2023-03-03T04:53:14;100820.13;;;-5.03;100.00
36062;BME280;22123;52.412;20.970;2023-03-03T04:55:40;100804.19;;;-4.98;100.00
36062;BME280;22123;52.412;20.970;2023-03-03T04:58:06;100598.56;;;-6.22;100.00
36062;BME280;22123;52.412;20.970;2023-03-03T05:00:32;100716.13;;;-5.48;100.00
36062;BME280;22123;52.412;20.970;2023-03-03T05:02:58;100750.75;;;-5.18;100.00
36062;BME280;22123;52.412;20.970;2023-03-03T05:05:23;100929.00;;;-4.06;100.00
36062;BME280;22123;52.412;20.970;2023-03-03T05:07:49;100918.19;;;-3.98;100.00
36062;BME280;22123;52.412;20.970;2023-03-03T05:10:15;100832.50;;;-4.43;100.00
36062;BME280;22123;52.412;20.970;2023-03-03T05:12:41;100809.78;;;-4.44;100.00
36062;BME280;22123;52.412;20.970;2023-03-03T05:15:08;100826.72;;;-4.31;100.00
36062;BME280;22123;52.412;20.970;2023-03-03T05:17:34;100782.84;;;-4.49;100.00
36062;BME280;22123;52.412;20.970;2023-03-03T05:20:00;100723.84;;;-4.82;100.00
36062;BME280;22123;52.412;20.970;2023-03-03T05:22:26;100852.63;;;-4.03;100.00
36062;BME280;22123;52.412;20.970;2023-03-03T05:24:51;100809.81;;;-4.25;100.00
36062;BME280;22123;52.412;20.970;2023-03-03T05:27:17;100870.91;;;-3.80;100.00
36062;BME280;22123;52.412;20.970;2023-03-03T05:29:43;100752.28;;;-4.52;100.00
36062;BME280;22123;52.412;20.970;2023-03-03T05:32:09;100761.34;;;-4.39;100.00
36062;BME280;22123;52.412;20.970;2023-03-03T05:34:35;100924.28;;;-3.39;100.00
36062;BME280;22123;52.412;20.970;2023-03-03T05:37:01;100760.97;;;-4.31;100.00
36062;BME280;22123;52.412;20.970;2023-03-03T05:39:27;100876.09;;;-3.60;100.00
36062;BME280;22123;52.412;20.970;2023-03-03T05:41:53;100920.38;;;-3.30;100.00
36062;BME280;22123;52.412;20.970;2023-03-03T05:44:19;100558.38;;;-5.41;100.00
36062;BME280;22123;52.412;20.970;2023-03-03T05:46:44;100846.47;;;-3.63;100.00
36062;BME280;22123;52.412;20.970;2023-03-03T05:49:10;100914.72;;;-3.22;100.00
36062;BME280;22123;52.412;20.970;2023-03-03T05:51:48;100724.03;;;-4.28;100.00
36062;BME280;22123;52.412;20.970;2023-03-03T05:54:14;100900.56;;;-3.20;100.00
36062;BME280;22123;52.412;20.970;2023-03-03T05:56:40;100809.34;;;-3.76;100.00
36062;BME280;22123;52.412;20.970;2023-03-03T05:59:06;100834.44;;;-3.50;100.00
36062;BME280;22123;52.412;20.970;2023-03-03T06:01:31;100724.84;;;-4.26;100.00
36062;BME280;22123;52.412;20.970;2023-03-03T06:03:57;100804.69;;;-3.71;100.00
36062;BME280;22123;52.412;20.970;2023-03-03T06:06:23;100760.34;;;-3.98;100.00
36062;BME280;22123;52.412;20.970;2023-03-03T06:08:49;100477.50;;;-5.70;100.00
36062;BME280;22123;52.412;20.970;2023-03-03T06:11:15;100849.00;;;-3.43;100.00
36062;BME280;22123;52.412;20.970;2023-03-03T06:13:41;100761.78;;;-3.91;100.00
36062;BME280;22123;52.412;20.970;2023-03-03T06:16:07;100865.84;;;-3.28;100.00
36062;BME280;22123;52.412;20.970;2023-03-03T06:18:33;100713.59;;;-4.10;100.00
36062;BME280;22123;52.412;20.970;2023-03-03T06:20:58;100803.97;;;-3.56;100.00
36062;BME280;22123;52.412;20.970;2023-03-03T06:23:24;100845.53;;;-3.26;100.00
36062;BME280;22123;52.412;20.970;2023-03-03T06:25:50;100796.69;;;-3.51;100.00
36062;BME280;22123;52.412;20.970;2023-03-03T06:28:16;100826.50;;;-3.31;100.00
36062;BME280;22123;52.412;20.970;2023-03-03T06:30:42;100688.34;;;-4.14;100.00
36062;BME280;22123;52.412;20.970;2023-03-03T06:33:08;100802.13;;;-3.54;100.00
36062;BME280;22123;52.412;20.970;2023-03-03T06:35:34;100836.94;;;-3.29;100.00
36062;BME280;22123;52.412;20.970;2023-03-03T06:38:00;100686.81;;;-4.18;100.00
36062;BME280;22123;52.412;20.970;2023-03-03T06:40:25;100734.13;;;-3.99;100.00
36062;BME280;22123;52.412;20.970;2023-03-03T06:42:51;100786.47;;;-3.57;100.00
36062;BME280;22123;52.412;20.970;2023-03-03T06:45:17;100757.56;;;-3.76;100.00
36062;BME280;22123;52.412;20.970;2023-03-03T06:47:43;100826.72;;;-3.36;100.00
36062;BME280;22123;52.412;20.970;2023-03-03T06:50:10;100831.38;;;-3.23;100.00
36062;BME280;22123;52.412;20.970;2023-03-03T06:52:37;100826.97;;;-3.23;100.00
36062;BME280;22123;52.412;20.970;2023-03-03T06:55:11;100917.94;;;-2.62;100.00
36062;BME280;22123;52.412;20.970;2023-03-03T06:57:37;100515.84;;;-5.09;100.00
36062;BME280;22123;52.412;20.970;2023-03-03T07:00:26;100916.94;;;-2.59;100.00
36062;BME280;22123;52.412;20.970;2023-03-03T07:03:04;100841.41;;;-3.12;100.00
36062;BME280;22123;52.412;20.970;2023-03-03T07:05:32;100910.28;;;-2.66;100.00
36062;BME280;22123;52.412;20.970;2023-03-03T07:07:58;100814.59;;;-3.21;100.00
36062;BME280;22123;52.412;20.970;2023-03-03T07:10:27;100785.69;;;-3.22;100.00
36062;BME280;22123;52.412;20.970;2023-03-03T07:12:56;100893.50;;;-2.65;100.00
36062;BME280;22123;52.412;20.970;2023-03-03T07:15:34;100884.59;;;-2.63;100.00
36062;BME280;22123;52.412;20.970;2023-03-03T07:18:00;100892.28;;;-2.58;100.00
36062;BME280;22123;52.412;20.970;2023-03-03T07:20:34;100903.94;;;-2.45;100.00
36062;BME280;22123;52.412;20.970;2023-03-03T07:23:21;100759.94;;;-3.35;100.00
36062;BME280;22123;52.412;20.970;2023-03-03T07:25:48;100899.50;;;-2.44;100.00
36062;BME280;22123;52.412;20.970;2023-03-03T07:28:22;100821.75;;;-2.88;100.00
36062;BME280;22123;52.412;20.970;2023-03-03T07:30:49;100823.81;;;-2.77;100.00
36062;BME280;22123;52.412;20.970;2023-03-03T07:33:24;100570.22;;;-4.37;100.00
36062;BME280;22123;52.412;20.970;2023-03-03T07:35:53;100795.78;;;-2.78;100.00
36062;BME280;22123;52.412;20.970;2023-03-03T07:40:53;100813.66;;;-2.67;100.00
36062;BME280;22123;52.412;20.970;2023-03-03T07:43:28;100859.63;;;-2.38;100.00
36062;BME280;22123;52.412;20.970;2023-03-03T07:48:46;100842.81;;;-2.53;100.00
36062;BME280;22123;52.412;20.970;2023-03-03T07:54:34;100829.22;;;-2.45;100.00
36062;BME280;22123;52.412;20.970;2023-03-03T07:59:37;100931.66;;;-1.69;100.00
36062;BME280;22123;52.412;20.970;2023-03-03T08:02:05;100790.56;;;-2.62;100.00
36062;BME280;22123;52.412;20.970;2023-03-03T08:04:46;100942.16;;;-1.67;100.00
36062;BME280;22123;52.412;20.970;2023-03-03T08:07:16;100837.28;;;-2.31;100.00
36062;BME280;22123;52.412;20.970;2023-03-03T08:09:45;100903.84;;;-1.92;100.00
36062;BME280;22123;52.412;20.970;2023-03-03T08:14:37;100839.47;;;-2.39;100.00
36062;BME280;22123;52.412;20.970;2023-03-03T08:17:19;100865.56;;;-2.17;100.00
36062;BME280;22123;52.412;20.970;2023-03-03T08:19:46;100939.75;;;-1.72;100.00
36062;BME280;22123;52.412;20.970;2023-03-03T08:22:15;100982.91;;;-1.40;100.00
36062;BME280;22123;52.412;20.970;2023-03-03T08:24:42;100945.41;;;-1.62;100.00
36062;BME280;22123;52.412;20.970;2023-03-03T08:27:08;100799.78;;;-2.53;100.00
36062;BME280;22123;52.412;20.970;2023-03-03T08:29:34;100876.59;;;-2.08;100.00
36062;BME280;22123;52.412;20.970;2023-03-03T08:31:59;100943.78;;;-1.65;100.00
36062;BME280;22123;52.412;20.970;2023-03-03T08:34:25;100757.56;;;-2.69;100.00
36062;BME280;22123;52.412;20.970;2023-03-03T08:36:51;100938.09;;;-1.41;100.00
36062;BME280;22123;52.412;20.970;2023-03-03T08:39:17;100957.03;;;-1.17;100.00
36062;BME280;22123;52.412;20.970;2023-03-03T08:41:43;100829.13;;;-1.93;100.00
36062;BME280;22123;52.412;20.970;2023-03-03T08:44:09;100941.28;;;-1.18;100.00
36062;BME280;22123;52.412;20.970;2023-03-03T08:46:39;100909.41;;;-1.31;100.00
36062;BME280;22123;52.412;20.970;2023-03-03T08:49:05;100884.09;;;-1.35;100.00
36062;BME280;22123;52.412;20.970;2023-03-03T08:51:31;100776.09;;;-1.88;100.00
36062;BME280;22123;52.412;20.970;2023-03-03T08:53:57;100879.41;;;-1.30;100.00
36062;BME280;22123;52.412;20.970;2023-03-03T08:56:23;100910.16;;;-1.13;100.00
36062;BME280;22123;52.412;20.970;2023-03-03T08:58:49;100875.72;;;-1.44;100.00
36062;BME280;22123;52.412;20.970;2023-03-03T09:01:15;100745.41;;;-2.22;100.00
36062;BME280;22123;52.412;20.970;2023-03-03T09:03:42;100788.41;;;-1.88;100.00
36062;BME280;22123;52.412;20.970;2023-03-03T09:06:08;100983.47;;;-0.69;100.00
36062;BME280;22123;52.412;20.970;2023-03-03T09:08:34;100899.84;;;-1.18;100.00
36062;BME280;22123;52.412;20.970;2023-03-03T09:11:00;100814.31;;;-1.63;100.00
36062;BME280;22123;52.412;20.970;2023-03-03T09:13:28;100977.25;;;-0.68;100.00
36062;BME280;22123;52.412;20.970;2023-03-03T09:15:56;100729.25;;;-2.00;100.00
36062;BME280;22123;52.412;20.970;2023-03-03T09:18:36;100885.78;;;-1.18;100.00
36062;BME280;22123;52.412;20.970;2023-03-03T09:21:20;100800.44;;;-1.67;100.00
36062;BME280;22123;52.412;20.970;2023-03-03T09:23:51;100936.97;;;-0.73;100.00
36062;BME280;22123;52.412;20.970;2023-03-03T09:26:45;100907.25;;;-0.93;100.00
36062;BME280;22123;52.412;20.970;2023-03-03T09:31:57;100761.78;;;-1.84;100.00
36062;BME280;22123;52.412;20.970;2023-03-03T09:37:12;100853.56;;;-1.25;100.00
36062;BME280;22123;52.412;20.970;2023-03-03T09:39:39;100854.84;;;-1.16;100.00
36062;BME280;22123;52.412;20.970;2023-03-03T09:50:33;100926.72;;;-0.63;100.00
36062;BME280;22123;52.412;20.970;2023-03-03T10:04:20;100860.06;;;-1.31;100.00
36062;BME280;22123;52.412;20.970;2023-03-03T10:07:17;100935.91;;;-0.85;100.00
36062;BME280;22123;52.412;20.970;2023-03-03T10:10:05;100811.94;;;-1.52;100.00
36062;BME280;22123;52.412;20.970;2023-03-03T10:15:31;100942.53;;;-0.78;100.00
36062;BME280;22123;52.412;20.970;2023-03-03T10:18:12;100934.59;;;-0.78;100.00
36062;BME280;22123;52.412;20.970;2023-03-03T10:20:55;100937.75;;;-0.87;100.00
36062;BME280;22123;52.412;20.970;2023-03-03T10:23:48;100936.06;;;-0.88;100.00
36062;BME280;22123;52.412;20.970;2023-03-03T10:31:57;100818.41;;;-1.73;100.00
36062;BME280;22123;52.412;20.970;2023-03-03T10:34:43;100877.97;;;-1.20;100.00
36062;BME280;22123;52.412;20.970;2023-03-03T10:37:17;100942.09;;;-0.86;100.00
36062;BME280;22123;52.412;20.970;2023-03-03T10:40:25;100943.91;;;-0.86;100.00
36062;BME280;22123;52.412;20.970;2023-03-03T10:43:41;100955.06;;;-0.81;100.00
36062;BME280;22123;52.412;20.970;2023-03-03T10:46:06;100946.91;;;-0.77;100.00
36062;BME280;22123;52.412;20.970;2023-03-03T10:52:03;100916.59;;;-0.87;100.00
36062;BME280;22123;52.412;20.970;2023-03-03T11:00:30;100828.53;;;-1.50;100.00
36062;BME280;22123;52.412;20.970;2023-03-03T11:08:13;100954.03;;;-0.79;100.00
36062;BME280;22123;52.412;20.970;2023-03-03T11:27:08;100838.50;;;-1.23;100.00
36062;BME280;22123;52.412;20.970;2023-03-03T11:29:50;100929.75;;;-0.69;100.00
36062;BME280;22123;52.412;20.970;2023-03-03T11:32:40;100924.69;;;-0.74;100.00
36062;BME280;22123;52.412;20.970;2023-03-03T11:35:52;100892.06;;;-0.89;100.00
36062;BME280;22123;52.412;20.970;2023-03-03T11:46:55;100924.59;;;-0.73;100.00
36062;BME280;22123;52.412;20.970;2023-03-03T11:49:36;100761.19;;;-1.89;100.00
36062;BME280;22123;52.412;20.970;2023-03-03T11:52:29;100934.09;;;-0.84;100.00
36062;BME280;22123;52.412;20.970;2023-03-03T11:55:13;100929.41;;;-0.79;100.00
36062;BME280;22123;52.412;20.970;2023-03-03T12:08:38;100917.38;;;-0.85;100.00
36062;BME280;22123;52.412;20.970;2023-03-03T12:11:14;100930.00;;;-0.90;100.00
36062;BME280;22123;52.412;20.970;2023-03-03T12:16:24;100856.31;;;-1.43;100.00
36062;BME280;22123;52.412;20.970;2023-03-03T12:18:56;100928.31;;;-0.91;100.00
36062;BME280;22123;52.412;20.970;2023-03-03T12:21:33;100924.81;;;-0.92;100.00
36062;BME280;22123;52.412;20.970;2023-03-03T12:29:35;100911.50;;;-0.90;100.00
36062;BME280;22123;52.412;20.970;2023-03-03T12:32:20;100921.41;;;-0.94;100.00
36062;BME280;22123;52.412;20.970;2023-03-03T12:40:33;100902.56;;;-1.03;100.00
36062;BME280;22123;52.412;20.970;2023-03-03T12:46:05;100719.56;;;-2.16;100.00
36062;BME280;22123;52.412;20.970;2023-03-03T13:10:39;100841.06;;;-1.21;100.00
36062;BME280;22123;52.412;20.970;2023-03-03T13:15:42;100764.06;;;-1.62;100.00
36062;BME280;22123;52.412;20.970;2023-03-03T13:21:08;100719.72;;;-2.03;100.00
36062;BME280;22123;52.412;20.970;2023-03-03T13:26:26;100738.53;;;-1.77;100.00
36062;BME280;22123;52.412;20.970;2023-03-03T13:29:29;100898.25;;;-0.74;100.00
36062;BME280;22123;52.412;20.970;2023-03-03T13:32:02;100786.28;;;-1.50;100.00
36062;BME280;22123;52.412;20.970;2023-03-03T13:42:51;100874.25;;;-1.01;100.00
36062;BME280;22123;52.412;20.970;2023-03-03T13:45:41;100885.84;;;-0.88;100.00
36062;BME280;22123;52.412;20.970;2023-03-03T13:51:03;100712.22;;;-1.95;100.00
36062;BME280;22123;52.412;20.970;2023-03-03T14:05:14;100875.22;;;-1.02;100.00
36062;BME280;22123;52.412;20.970;2023-03-03T14:11:06;100875.44;;;-0.91;100.00
36062;BME280;22123;52.412;20.970;2023-03-03T14:13:53;100747.44;;;-1.64;100.00
36062;BME280;22123;52.412;20.970;2023-03-03T14:19:25;100884.56;;;-0.81;100.00
36062;BME280;22123;52.412;20.970;2023-03-03T14:24:31;100729.06;;;-1.81;100.00
36062;BME280;22123;52.412;20.970;2023-03-03T14:26:58;100703.81;;;-2.01;100.00
36062;BME280;22123;52.412;20.970;2023-03-03T14:31:55;100545.16;;;-3.05;100.00
36062;BME280;22123;52.412;20.970;2023-03-03T14:34:38;100749.59;;;-1.70;100.00
36062;BME280;22123;52.412;20.970;2023-03-03T14:38:08;100815.06;;;-1.29;100.00
36062;BME280;22123;52.412;20.970;2023-03-03T14:40:21;100872.03;;;-0.93;100.00
36062;BME280;22123;52.412;20.970;2023-03-03T14:45:40;100869.56;;;-0.96;100.00
36062;BME280;22123;52.412;20.970;2023-03-03T14:48:24;100862.75;;;-1.00;100.00
36062;BME280;22123;52.412;20.970;2023-03-03T14:50:55;100793.53;;;-1.53;100.00
36062;BME280;22123;52.412;20.970;2023-03-03T14:53:33;100862.91;;;-1.03;100.00
36062;BME280;22123;52.412;20.970;2023-03-03T14:59:10;100834.59;;;-1.32;100.00
36062;BME280;22123;52.412;20.970;2023-03-03T15:01:40;100798.97;;;-1.57;100.00
36062;BME280;22123;52.412;20.970;2023-03-03T15:06:47;100737.78;;;-1.95;100.00
36062;BME280;22123;52.412;20.970;2023-03-03T15:11:53;100619.56;;;-2.68;100.00
36062;BME280;22123;52.412;20.970;2023-03-03T15:17:56;100791.91;;;-1.56;100.00
36062;BME280;22123;52.412;20.970;2023-03-03T15:26:07;100861.94;;;-1.17;100.00
36062;BME280;22123;52.412;20.970;2023-03-03T15:31:29;100854.09;;;-1.18;100.00
36062;BME280;22123;52.412;20.970;2023-03-03T15:37:28;100857.75;;;-1.21;100.00
36062;BME280;22123;52.412;20.970;2023-03-03T15:40:18;100820.34;;;-1.45;100.00
36062;BME280;22123;52.412;20.970;2023-03-03T15:42:48;100855.47;;;-1.27;100.00
36062;BME280;22123;52.412;20.970;2023-03-03T15:45:42;100854.41;;;-1.25;100.00
36062;BME280;22123;52.412;20.970;2023-03-03T15:48:33;100758.38;;;-1.86;100.00
36062;BME280;22123;52.412;20.970;2023-03-03T15:56:55;100673.50;;;-2.42;100.00
36062;BME280;22123;52.412;20.970;2023-03-03T16:02:27;100863.13;;;-1.23;100.00
36062;BME280;22123;52.412;20.970;2023-03-03T16:05:25;100859.63;;;-1.23;100.00
36062;BME280;22123;52.412;20.970;2023-03-03T16:08:15;100783.47;;;-1.63;100.00
36062;BME280;22123;52.412;20.970;2023-03-03T16:11:14;100857.00;;;-1.23;100.00
36062;BME280;22123;52.412;20.970;2023-03-03T16:24:54;100858.28;;;-1.30;100.00
36062;BME280;22123;52.412;20.970;2023-03-03T16:33:10;100833.63;;;-1.31;100.00
36062;BME280;22123;52.412;20.970;2023-03-03T16:36:01;100735.47;;;-2.01;100.00
36062;BME280;22123;52.412;20.970;2023-03-03T16:38:37;100725.50;;;-2.12;100.00
36062;BME280;22123;52.412;20.970;2023-03-03T16:41:14;100678.63;;;-2.39;100.00
36062;BME280;22123;52.412;20.970;2023-03-03T16:43:54;100828.97;;;-1.42;100.00
36062;BME280;22123;52.412;20.970;2023-03-03T16:46:37;100838.66;;;-1.42;100.00
36062;BME280;22123;52.412;20.970;2023-03-03T16:51:52;100789.88;;;-1.83;100.00
36062;BME280;22123;52.412;20.970;2023-03-03T16:59:54;100841.16;;;-1.55;100.00
36062;BME280;22123;52.412;20.970;2023-03-03T17:10:34;100501.63;;;-3.62;100.00
36062;BME280;22123;52.412;20.970;2023-03-03T17:16:09;100845.31;;;-1.51;100.00